TimeEST,TemperatureF,Dew PointF,Humidity,Sea Level PressureIn,VisibilityMPH,Wind Direction,Wind SpeedMPH,Gust SpeedMPH,PrecipitationIn,Events,Conditions,WindDirDegrees,DateUTC
12:15 AM,33.8,19.4,56,29.77,10.0,SW,5.8,-,N/A,,Scattered Clouds,230,2013-01-01 05:15:00
1:35 AM,33.8,19.4,56,29.75,10.0,SSW,6.9,-,N/A,,Overcast,210,2013-01-01 06:35:00
1:55 AM,33.8,19.4,56,29.76,10.0,SW,4.6,-,N/A,,Overcast,230,2013-01-01 06:55:00
2:15 AM,33.8,19.4,56,29.76,10.0,WSW,3.5,-,N/A,,Overcast,240,2013-01-01 07:15:00
2:35 AM,33.8,19.4,56,29.76,10.0,WSW,5.8,-,N/A,,Overcast,250,2013-01-01 07:35:00
2:55 AM,33.8,19.4,56,29.75,10.0,WSW,6.9,-,N/A,,Overcast,240,2013-01-01 07:55:00
3:15 AM,33.8,19.4,56,29.74,10.0,WSW,4.6,-,N/A,,Overcast,240,2013-01-01 08:15:00
3:35 AM,33.8,19.4,56,29.74,10.0,SW,4.6,-,N/A,,Scattered Clouds,230,2013-01-01 08:35:00
4:15 AM,32.0,19.4,60,29.73,10.0,SW,3.5,-,N/A,,Mostly Cloudy,230,2013-01-01 09:15:00
4:35 AM,32.0,19.4,60,29.74,10.0,WSW,4.6,-,N/A,,Partly Cloudy,240,2013-01-01 09:35:00
4:55 AM,33.8,21.2,60,29.74,10.0,WSW,5.8,-,N/A,,Mostly Cloudy,250,2013-01-01 09:55:00
5:15 AM,33.8,21.2,60,29.74,10.0,WSW,8.1,-,N/A,,Overcast,250,2013-01-01 10:15:00
5:35 AM,33.8,21.2,60,29.74,10.0,WSW,6.9,-,N/A,,Overcast,250,2013-01-01 10:35:00
5:55 AM,33.8,21.2,60,29.74,10.0,WSW,10.4,18.4,N/A,,Overcast,240,2013-01-01 10:55:00
6:15 AM,33.8,21.2,60,29.75,10.0,WSW,10.4,18.4,N/A,,Overcast,240,2013-01-01 11:15:00
6:35 AM,33.8,21.2,60,29.75,10.0,WSW,6.9,16.1,N/A,,Overcast,250,2013-01-01 11:35:00
6:55 AM,33.8,21.2,60,29.75,10.0,WSW,6.9,-,N/A,,Overcast,240,2013-01-01 11:55:00
7:15 AM,33.8,21.2,60,29.75,10.0,WSW,8.1,-,N/A,,Overcast,250,2013-01-01 12:15:00
7:35 AM,33.8,21.2,60,29.75,10.0,WSW,9.2,-,N/A,,Overcast,250,2013-01-01 12:35:00
7:55 AM,33.8,23.0,65,29.76,10.0,WSW,4.6,-,N/A,,Overcast,240,2013-01-01 12:55:00
8:15 AM,33.8,23.0,65,29.77,10.0,West,5.8,-,N/A,,Overcast,260,2013-01-01 13:15:00
8:35 AM,33.8,21.2,60,29.76,10.0,WSW,5.8,-,N/A,,Mostly Cloudy,250,2013-01-01 13:35:00
8:55 AM,33.8,23.0,65,29.77,10.0,WSW,11.5,-,N/A,,Mostly Cloudy,250,2013-01-01 13:55:00
9:15 AM,35.6,21.2,56,29.77,10.0,West,15.0,19.6,N/A,,Mostly Cloudy,270,2013-01-01 14:15:00
9:35 AM,35.6,19.4,52,29.77,10.0,West,18.4,31.1,N/A,,Mostly Cloudy,280,2013-01-01 14:35:00
10:15 AM,33.8,15.8,48,29.79,10.0,West,24.2,38.0,N/A,,Partly Cloudy,280,2013-01-01 15:15:00
10:35 AM,33.8,15.8,48,29.79,10.0,West,18.4,29.9,N/A,,Partly Cloudy,270,2013-01-01 15:35:00
10:55 AM,33.8,15.8,48,29.78,10.0,WNW,24.2,36.8,N/A,,Partly Cloudy,290,2013-01-01 15:55:00
11:15 AM,33.8,15.8,48,29.76,10.0,WNW,15.0,25.3,N/A,,Clear,290,2013-01-01 16:15:00
11:55 AM,33.8,14.0,44,29.76,10.0,WNW,15.0,31.1,N/A,,Clear,300,2013-01-01 16:55:00
12:15 PM,33.8,14.0,44,29.75,10.0,WNW,24.2,35.7,N/A,,Clear,290,2013-01-01 17:15:00
12:35 PM,33.8,14.0,44,29.74,10.0,WNW,21.9,33.4,N/A,,Clear,290,2013-01-01 17:35:00
12:55 PM,33.8,14.0,44,29.75,10.0,WNW,16.1,28.8,N/A,,Clear,290,2013-01-01 17:55:00
1:15 PM,33.8,14.0,44,29.75,10.0,West,16.1,23.0,N/A,,Scattered Clouds,280,2013-01-01 18:15:00
1:35 PM,33.8,12.2,41,29.74,10.0,WNW,12.7,24.2,N/A,,Scattered Clouds,300,2013-01-01 18:35:00
1:55 PM,33.8,12.2,41,29.75,10.0,WNW,17.3,26.5,N/A,,Partly Cloudy,290,2013-01-01 18:55:00
2:15 PM,33.8,12.2,41,29.75,10.0,West,18.4,27.6,N/A,,Partly Cloudy,280,2013-01-01 19:15:00
2:35 PM,32.0,12.2,44,29.75,10.0,WNW,12.7,26.5,N/A,,Clear,300,2013-01-01 19:35:00
2:55 PM,32.0,12.2,44,29.75,10.0,WNW,15.0,26.5,N/A,,Scattered Clouds,290,2013-01-01 19:55:00
3:15 PM,30.2,12.2,47,29.76,10.0,NW,15.0,29.9,N/A,,Scattered Clouds,310,2013-01-01 20:15:00
3:35 PM,30.2,10.4,44,29.76,10.0,WNW,18.4,34.5,N/A,,Clear,290,2013-01-01 20:35:00
4:35 PM,28.4,10.4,47,29.78,10.0,WNW,17.3,24.2,N/A,,Clear,290,2013-01-01 21:35:00
4:55 PM,28.4,10.4,47,29.79,10.0,WNW,9.2,20.7,N/A,,Clear,300,2013-01-01 21:55:00
5:15 PM,28.4,8.6,43,29.81,10.0,WNW,13.8,20.7,N/A,,Clear,290,2013-01-01 22:15:00
5:35 PM,28.4,8.6,43,29.81,10.0,NW,12.7,21.9,N/A,,Clear,310,2013-01-01 22:35:00
6:15 PM,26.6,8.6,47,29.83,10.0,West,13.8,23.0,N/A,,Clear,280,2013-01-01 23:15:00
6:35 PM,26.6,8.6,47,29.84,10.0,WNW,13.8,-,N/A,,Clear,290,2013-01-01 23:35:00
7:15 PM,26.6,8.6,47,29.85,10.0,WNW,10.4,20.7,N/A,,Clear,290,2013-01-02 00:15:00
7:35 PM,24.8,8.6,50,29.85,10.0,WNW,10.4,16.1,N/A,,Clear,290,2013-01-02 00:35:00
7:55 PM,24.8,8.6,50,29.86,10.0,NW,8.1,-,N/A,,Clear,310,2013-01-02 00:55:00
8:35 PM,24.8,8.6,50,29.87,10.0,West,8.1,16.1,N/A,,Clear,280,2013-01-02 01:35:00
8:55 PM,23.0,8.6,54,29.87,10.0,NW,9.2,18.4,N/A,,Clear,310,2013-01-02 01:55:00
9:15 PM,23.0,6.8,50,29.87,10.0,NW,9.2,-,N/A,,Clear,310,2013-01-02 02:15:00
9:35 PM,21.2,6.8,54,29.87,10.0,West,6.9,-,N/A,,Clear,270,2013-01-02 02:35:00
9:55 PM,21.2,8.6,58,29.88,10.0,West,6.9,-,N/A,,Clear,280,2013-01-02 02:55:00
10:55 PM,19.4,6.8,58,29.89,10.0,WNW,9.2,-,N/A,,Clear,290,2013-01-02 03:55:00
11:15 PM,19.4,5.0,54,29.89,10.0,WNW,8.1,-,N/A,,Clear,290,2013-01-02 04:15:00
11:35 PM,19.4,3.2,49,29.90,10.0,West,10.4,-,N/A,,Clear,280,2013-01-02 04:35:00
11:55 PM,19.4,3.2,49,29.90,10.0,WNW,8.1,-,N/A,,Clear,290,2013-01-02 04:55:00